createdAt,value
2023-04-21T00:00:09.332Z,7.60
2023-04-21T00:02:39.976Z,7.62
2023-04-21T00:05:10.702Z,7.65
2023-04-21T00:07:39.524Z,7.58
2023-04-21T00:10:09.774Z,7.55
2023-04-21T00:12:38.368Z,7.48
2023-04-21T00:15:10.017Z,7.44
2023-04-21T00:17:39.245Z,7.34
2023-04-21T00:20:10.619Z,7.26
2023-04-21T00:22:39.089Z,7.30
2023-04-21T00:25:08.749Z,7.28
2023-04-21T00:27:37.122Z,7.26
2023-04-21T00:30:09.595Z,7.22
2023-04-21T00:32:38.883Z,7.22
2023-04-21T00:35:08.194Z,7.18
2023-04-21T00:37:36.706Z,7.08
2023-04-21T00:40:06.787Z,7.17
2023-04-21T00:42:35.192Z,7.17
2023-04-21T00:45:03.793Z,7.16
2023-04-21T00:47:33.986Z,7.13
2023-04-21T00:50:03.029Z,7.08
2023-04-21T00:52:32.432Z,7.17
2023-04-21T00:55:01.456Z,7.15
2023-04-21T00:57:30.691Z,7.18
2023-04-21T00:59:59.102Z,7.21
2023-04-21T01:02:28.520Z,7.25
2023-04-21T01:04:58.487Z,7.18
2023-04-21T01:07:27.333Z,7.19
2023-04-21T01:09:56.093Z,7.09
2023-04-21T01:12:24.879Z,6.98
2023-04-21T01:14:53.257Z,6.96
2023-04-21T01:17:21.754Z,6.88
2023-04-21T01:19:51.366Z,6.86
2023-04-21T01:22:21.112Z,6.82
2023-04-21T01:24:50.592Z,6.75
2023-04-21T01:27:21.517Z,6.67
2023-04-21T01:29:52.920Z,6.70
2023-04-21T01:32:25.266Z,6.80
2023-04-21T01:34:55.059Z,6.93
2023-04-21T01:37:28.760Z,6.95
2023-04-21T01:40:00.247Z,6.86
2023-04-21T01:42:30.779Z,6.85
2023-04-21T01:45:00.134Z,6.85
2023-04-21T01:47:28.783Z,6.88
2023-04-21T01:49:57.163Z,6.86
2023-04-21T01:52:27.083Z,6.84
2023-04-21T01:54:56.456Z,6.88
2023-04-21T01:57:24.887Z,6.90
2023-04-21T01:59:53.495Z,6.92
2023-04-21T02:02:22.130Z,6.86
2023-04-21T02:04:52.558Z,6.82
2023-04-21T02:07:20.955Z,6.79
2023-04-21T02:09:50.713Z,6.76
2023-04-21T02:12:19.185Z,6.72
2023-04-21T02:14:48.259Z,6.74
2023-04-21T02:17:16.796Z,6.77
2023-04-21T02:19:45.528Z,6.82
2023-04-21T02:22:13.910Z,6.81
2023-04-21T02:24:42.369Z,6.82
2023-04-21T02:27:12.166Z,7.79
2023-04-21T02:29:40.741Z,7.71
2023-04-21T02:32:22.351Z,7.87
2023-04-21T02:34:53.726Z,7.97
2023-04-21T02:37:22.938Z,8.08
2023-04-21T02:39:54.731Z,7.78
2023-04-21T02:42:24.491Z,7.86
2023-04-21T02:44:54.059Z,7.60
2023-04-21T02:47:22.419Z,7.48
2023-04-21T02:49:50.873Z,7.54
2023-04-21T02:52:19.402Z,7.57
2023-04-21T02:54:47.830Z,7.49
2023-04-21T02:57:16.183Z,7.59
2023-04-21T02:59:46.053Z,7.52
2023-04-21T03:02:14.449Z,7.52
2023-04-21T03:04:42.955Z,7.56
2023-04-21T03:07:14.260Z,7.40
2023-04-21T03:09:42.902Z,7.07
2023-04-21T03:12:11.332Z,6.95
2023-04-21T03:14:39.729Z,6.94
2023-04-21T03:17:09.816Z,6.95
2023-04-21T03:19:38.216Z,6.94
2023-04-21T03:22:07.022Z,6.90
2023-04-21T03:24:35.520Z,6.84
2023-04-21T03:27:03.867Z,6.74
2023-04-21T03:29:32.316Z,6.75
2023-04-21T03:32:00.703Z,6.77
2023-04-21T03:34:30.561Z,6.71
2023-04-21T03:37:00.973Z,6.72
2023-04-21T03:39:29.405Z,6.68
2023-04-21T03:41:57.897Z,6.78
2023-04-21T03:44:28.752Z,6.79
2023-04-21T03:46:57.643Z,6.80
2023-04-21T03:49:26.311Z,6.77
2023-04-21T03:51:56.105Z,6.69
2023-04-21T03:54:24.417Z,6.64
2023-04-21T03:56:52.797Z,6.61
2023-04-21T03:59:21.519Z,6.61
2023-04-21T04:01:50.033Z,6.55
2023-04-21T04:04:18.805Z,6.49
2023-04-21T04:06:47.277Z,6.56
2023-04-21T04:09:17.158Z,6.55
2023-04-21T04:11:45.717Z,6.58
2023-04-21T04:14:14.108Z,6.52
2023-04-21T04:16:42.592Z,6.42
2023-04-21T04:19:11.601Z,6.51
2023-04-21T04:21:40.010Z,6.56
2023-04-21T04:24:08.970Z,6.58
2023-04-21T04:26:40.107Z,6.59
2023-04-21T04:29:10.708Z,6.48
2023-04-21T04:31:39.372Z,6.56
2023-04-21T04:34:09.769Z,6.49
2023-04-21T04:36:38.128Z,6.52
2023-04-21T04:39:08.958Z,6.51
2023-04-21T04:41:39.575Z,6.49
2023-04-21T04:44:09.018Z,6.46
2023-04-21T04:46:37.629Z,6.51
2023-04-21T04:49:06.582Z,6.54
2023-04-21T04:51:35.014Z,6.53
2023-04-21T04:54:03.439Z,6.53
2023-04-21T04:56:32.212Z,6.51
2023-04-21T04:59:01.964Z,6.56
2023-04-21T05:01:31.291Z,6.59
2023-04-21T05:04:00.066Z,6.71
2023-04-21T05:06:29.672Z,6.72
2023-04-21T05:08:58.024Z,6.79
2023-04-21T05:11:26.490Z,6.81
2023-04-21T05:13:54.908Z,6.83
2023-04-21T05:16:24.668Z,6.88
2023-04-21T05:18:54.374Z,6.86
2023-04-21T05:21:27.769Z,6.87
2023-04-21T05:23:57.075Z,6.91
2023-04-21T05:26:27.524Z,6.94
2023-04-21T05:28:56.646Z,6.94
2023-04-21T05:31:26.852Z,6.93
2023-04-21T05:33:55.375Z,6.95
2023-04-21T05:36:24.977Z,7.04
2023-04-21T05:38:54.147Z,7.06
2023-04-21T05:41:22.767Z,7.12
2023-04-21T05:43:51.148Z,7.19
2023-04-21T05:46:19.569Z,7.23
2023-04-21T05:48:49.328Z,7.26
2023-04-21T05:51:17.864Z,7.24
2023-04-21T05:53:47.270Z,7.35
2023-04-21T05:56:15.768Z,7.38
2023-04-21T05:58:44.124Z,7.33
2023-04-21T06:01:13.064Z,7.19
2023-04-21T06:03:41.633Z,7.39
2023-04-21T06:06:11.625Z,7.35
2023-04-21T06:08:40.017Z,7.45
2023-04-21T06:11:08.625Z,7.45
2023-04-21T06:13:38.593Z,7.57
2023-04-21T06:16:08.143Z,7.62
2023-04-21T06:18:36.639Z,7.61
2023-04-21T06:21:05.960Z,7.68
2023-04-21T06:23:35.767Z,7.71
2023-04-21T06:26:06.884Z,7.74
2023-04-21T06:28:36.674Z,7.84
2023-04-21T06:31:08.745Z,7.89
2023-04-21T06:33:37.910Z,8.01
2023-04-21T06:36:07.357Z,8.03
2023-04-21T06:38:37.019Z,8.05
2023-04-21T06:41:06.595Z,8.04
2023-04-21T06:43:34.972Z,7.99
2023-04-21T06:46:03.355Z,8.03
2023-04-21T06:48:31.906Z,8.05
2023-04-21T06:51:00.629Z,8.18
2023-04-21T06:53:28.983Z,8.32
2023-04-21T06:55:58.767Z,8.61
2023-04-21T06:58:27.217Z,8.89
2023-04-21T07:00:55.763Z,8.99
2023-04-21T07:03:24.476Z,8.83
2023-04-21T07:05:53.222Z,8.86
2023-04-21T07:08:21.601Z,9.01
2023-04-21T07:10:50.018Z,8.98
2023-04-21T07:13:19.747Z,8.98
2023-04-21T07:15:48.158Z,8.81
2023-04-21T07:18:16.652Z,9.01
2023-04-21T07:20:45.206Z,9.06
2023-04-21T07:23:13.716Z,9.00
2023-04-21T07:25:42.097Z,8.95
2023-04-21T07:28:11.063Z,9.00
2023-04-21T07:30:40.870Z,8.94
2023-04-21T07:33:09.620Z,9.05
2023-04-21T07:35:38.229Z,9.12
2023-04-21T07:38:06.770Z,9.34
2023-04-21T07:40:35.105Z,9.47
2023-04-21T07:43:03.581Z,9.48
2023-04-21T07:45:31.999Z,9.70
2023-04-21T07:48:01.878Z,9.72
2023-04-21T07:50:30.305Z,9.92
2023-04-21T07:52:58.620Z,9.86
2023-04-21T07:55:27.018Z,9.93
2023-04-21T07:57:55.914Z,9.77
2023-04-21T08:00:24.617Z,9.83
2023-04-21T08:02:53.096Z,9.84
2023-04-21T08:05:22.995Z,9.83
2023-04-21T08:07:51.494Z,9.90
2023-04-21T08:10:19.937Z,9.79
2023-04-21T08:12:48.325Z,9.89
2023-04-21T08:15:16.723Z,9.93
2023-04-21T08:17:45.892Z,9.95
2023-04-21T08:20:14.915Z,10.04
2023-04-21T08:22:47.280Z,10.01
2023-04-21T08:25:16.514Z,10.21
2023-04-21T08:27:46.070Z,10.22
2023-04-21T08:30:15.664Z,10.36
2023-04-21T08:32:44.669Z,10.44
2023-04-21T08:35:13.249Z,10.52
2023-04-21T08:37:41.788Z,10.66
2023-04-21T08:40:12.833Z,10.64
2023-04-21T08:42:41.349Z,10.69
2023-04-21T08:45:12.546Z,10.88
2023-04-21T08:47:42.747Z,11.14
2023-04-21T08:50:15.675Z,11.11
2023-04-21T08:52:44.170Z,11.05
2023-04-21T08:55:15.355Z,11.19
2023-04-21T08:57:43.891Z,11.18
2023-04-21T09:00:13.849Z,11.44
2023-04-21T09:03:00.818Z,11.78
2023-04-21T09:05:32.112Z,11.84
2023-04-21T09:08:11.989Z,11.79
2023-04-21T09:10:52.468Z,11.67
2023-04-21T09:13:23.355Z,11.55
2023-04-21T09:15:53.313Z,11.52
2023-04-21T09:18:24.167Z,11.44
2023-04-21T09:21:07.844Z,11.38
2023-04-21T09:23:48.617Z,11.36
2023-04-21T09:26:21.357Z,11.35
2023-04-21T09:28:52.028Z,11.26
2023-04-21T09:31:24.596Z,11.33
2023-04-21T09:33:59.631Z,11.33
2023-04-21T09:36:31.993Z,11.13
2023-04-21T09:39:29.029Z,11.24
2023-04-21T09:41:52.761Z,11.17
2023-04-21T09:44:22.446Z,11.16
2023-04-21T09:46:52.983Z,11.22
2023-04-21T09:49:24.983Z,11.36
2023-04-21T09:54:31.671Z,11.07
2023-04-21T09:57:05.440Z,11.28
2023-04-21T09:59:37.015Z,11.50
2023-04-21T10:02:08.213Z,11.51
2023-04-21T10:04:43.190Z,11.69
2023-04-21T10:07:12.692Z,11.88
2023-04-21T10:09:47.151Z,12.08
2023-04-21T10:12:17.382Z,12.41
2023-04-21T10:14:45.728Z,12.73
2023-04-21T10:17:15.032Z,12.72
2023-04-21T10:19:51.543Z,12.99
2023-04-21T10:22:29.737Z,13.36
2023-04-21T10:25:00.321Z,13.38
2023-04-21T10:27:39.293Z,13.38
2023-04-21T10:30:22.666Z,13.47
2023-04-21T10:33:04.703Z,13.64
2023-04-21T10:36:00.993Z,13.48
2023-04-21T10:38:36.097Z,13.45
2023-04-21T10:41:28.279Z,13.58
2023-04-21T10:43:59.625Z,13.40
2023-04-21T10:46:36.183Z,13.29
2023-04-21T10:49:09.493Z,13.41
2023-04-21T10:52:06.509Z,13.05
2023-04-21T10:54:46.438Z,13.10
2023-04-21T10:57:17.474Z,13.14
2023-04-21T10:59:49.472Z,13.20
2023-04-21T11:02:19.908Z,13.22
2023-04-21T11:04:52.814Z,13.22
2023-04-21T11:07:23.209Z,12.93
2023-04-21T11:09:59.825Z,13.04
2023-04-21T11:12:30.793Z,13.18
2023-04-21T11:15:00.859Z,13.12
2023-04-21T11:17:29.251Z,13.35
2023-04-21T11:19:58.188Z,13.36
2023-04-21T11:22:27.914Z,13.38
2023-04-21T11:24:58.598Z,13.34
2023-04-21T11:27:30.018Z,13.49
2023-04-21T11:30:00.088Z,13.68
2023-04-21T11:32:29.270Z,13.71
2023-04-21T11:34:57.857Z,13.64
2023-04-21T11:37:28.192Z,13.62
2023-04-21T11:40:00.579Z,13.44
2023-04-21T11:42:29.822Z,13.44
2023-04-21T11:45:00.689Z,13.47
2023-04-21T11:47:30.191Z,13.35
2023-04-21T11:50:00.554Z,13.33
2023-04-21T11:52:32.892Z,13.63
2023-04-21T11:55:03.111Z,13.96
2023-04-21T11:57:33.503Z,14.08
2023-04-21T12:00:07.935Z,14.16
2023-04-21T12:02:36.670Z,14.17
2023-04-21T12:05:08.093Z,13.90
2023-04-21T12:07:38.888Z,13.77
2023-04-21T12:10:12.694Z,14.00
2023-04-21T12:12:41.841Z,14.22
2023-04-21T12:15:13.844Z,14.23
2023-04-21T12:17:46.015Z,14.13
2023-04-21T12:20:17.638Z,14.11
2023-04-21T12:22:46.639Z,14.05
2023-04-21T12:25:15.373Z,14.30
2023-04-21T12:27:50.143Z,14.13
2023-04-21T12:30:20.537Z,14.06
2023-04-21T12:32:49.024Z,14.23
2023-04-21T12:35:17.968Z,14.40
2023-04-21T12:37:46.815Z,14.45
2023-04-21T12:40:15.288Z,14.54
2023-04-21T12:42:43.698Z,14.57
2023-04-21T12:45:13.720Z,14.65
2023-04-21T12:47:46.254Z,14.73
2023-04-21T12:50:15.719Z,15.07
2023-04-21T12:52:44.081Z,14.94
2023-04-21T12:55:13.413Z,15.04
2023-04-21T12:57:41.876Z,15.20
2023-04-21T13:00:13.037Z,15.05
2023-04-21T13:02:43.145Z,15.03
2023-04-21T13:05:13.309Z,14.91
2023-04-21T13:07:41.941Z,14.94
2023-04-21T13:10:11.443Z,14.98
2023-04-21T13:12:39.819Z,15.16
2023-04-21T13:15:10.007Z,15.07
2023-04-21T13:17:38.328Z,15.06
2023-04-21T13:20:09.531Z,15.18
2023-04-21T13:22:37.954Z,15.29
2023-04-21T13:25:07.519Z,15.01
2023-04-21T13:27:38.232Z,15.27
2023-04-21T13:30:09.786Z,15.20
2023-04-21T13:32:38.869Z,15.34
2023-04-21T13:35:10.735Z,15.36
2023-04-21T13:37:39.752Z,15.42
2023-04-21T13:40:10.949Z,15.42
2023-04-21T13:42:40.386Z,15.52
2023-04-21T13:45:10.282Z,15.70
2023-04-21T13:47:38.845Z,15.66
2023-04-21T13:50:10.507Z,15.68
2023-04-21T13:52:38.946Z,15.77
2023-04-21T13:55:08.484Z,15.70
2023-04-21T13:57:37.109Z,15.72
2023-04-21T14:00:07.037Z,15.78
2023-04-21T14:02:35.615Z,15.99
2023-04-21T14:05:04.867Z,16.09
2023-04-21T14:07:35.869Z,15.94
2023-04-21T14:10:05.080Z,16.08
2023-04-21T14:12:33.443Z,15.97
2023-04-21T14:15:01.869Z,16.13
2023-04-21T14:17:30.784Z,16.29
2023-04-21T14:19:59.331Z,16.26
2023-04-21T14:22:28.286Z,16.41
2023-04-21T14:24:58.274Z,16.56
2023-04-21T14:27:26.674Z,16.60
2023-04-21T14:29:55.124Z,16.56
2023-04-21T14:32:23.762Z,16.53
2023-04-21T14:34:53.569Z,16.49
2023-04-21T14:37:22.807Z,16.56
2023-04-21T14:39:51.306Z,16.59
2023-04-21T14:42:21.212Z,16.74
2023-04-21T14:44:49.674Z,16.74
2023-04-21T14:47:18.354Z,16.82
2023-04-21T14:49:47.275Z,16.80
2023-04-21T14:52:15.764Z,16.89
2023-04-21T14:54:44.145Z,17.09
2023-04-21T14:59:46.749Z,17.01
2023-04-21T15:02:15.846Z,17.08
2023-04-21T15:04:44.613Z,17.09
2023-04-21T15:07:13.459Z,17.18
2023-04-21T15:09:45.594Z,17.19
2023-04-21T15:12:14.723Z,17.26
2023-04-21T15:14:44.610Z,17.31
2023-04-21T15:17:13.188Z,17.15
2023-04-21T15:19:41.764Z,17.20
2023-04-21T15:22:12.156Z,17.20
2023-04-21T15:24:40.894Z,17.24
2023-04-21T15:27:09.322Z,17.20
2023-04-21T15:29:37.862Z,17.24
2023-04-21T15:32:07.918Z,17.25
2023-04-21T15:34:36.412Z,17.30
2023-04-21T15:37:04.786Z,17.43
2023-04-21T15:39:33.321Z,17.48
2023-04-21T15:42:01.929Z,17.51
2023-04-21T15:44:30.334Z,17.53
2023-04-21T15:46:58.847Z,17.57
2023-04-21T15:49:28.973Z,17.48
2023-04-21T15:51:59.639Z,17.47
2023-04-21T15:54:28.142Z,17.52
2023-04-21T15:56:57.626Z,17.57
2023-04-21T15:59:26.399Z,17.61
2023-04-21T16:01:56.856Z,17.65
2023-04-21T16:04:26.000Z,17.59
2023-04-21T16:06:56.211Z,17.65
2023-04-21T16:09:24.670Z,17.61
2023-04-21T16:11:53.173Z,17.60
2023-04-21T16:14:21.799Z,17.63
2023-04-21T16:16:50.167Z,17.54
2023-04-21T16:19:18.730Z,17.43
2023-04-21T16:21:47.228Z,17.68
2023-04-21T16:24:20.308Z,17.61
2023-04-21T16:26:48.987Z,17.66
2023-04-21T16:29:17.579Z,17.65
2023-04-21T16:31:46.577Z,17.72
2023-04-21T16:34:16.241Z,17.68
2023-04-21T16:36:45.227Z,17.60
2023-04-21T16:39:13.626Z,17.58
2023-04-21T16:41:43.349Z,17.70
2023-04-21T16:44:11.745Z,17.48
2023-04-21T16:46:40.868Z,17.40
2023-04-21T16:49:09.376Z,17.26
2023-04-21T16:51:40.042Z,17.17
2023-04-21T16:54:08.485Z,17.20
2023-04-21T16:56:36.888Z,17.32
2023-04-21T16:59:08.094Z,17.31
2023-04-21T17:01:36.576Z,17.30
2023-04-21T17:04:05.537Z,17.37
2023-04-21T17:06:34.324Z,17.32
2023-04-21T17:09:02.806Z,17.33
2023-04-21T17:11:32.628Z,17.32
2023-04-21T17:14:01.136Z,17.34
2023-04-21T17:16:31.025Z,17.36
2023-04-21T17:18:59.952Z,17.27
2023-04-21T17:21:29.201Z,17.23
2023-04-21T17:23:57.719Z,17.28
2023-04-21T17:26:26.375Z,17.14
2023-04-21T17:28:54.777Z,17.11
2023-04-21T17:31:23.258Z,16.96
2023-04-21T17:33:53.519Z,16.92
2023-04-21T17:36:22.117Z,16.94
2023-04-21T17:38:51.061Z,16.84
2023-04-21T17:41:20.055Z,16.75
2023-04-21T17:43:48.447Z,16.74
2023-04-21T17:46:16.969Z,16.69
2023-04-21T17:48:45.823Z,16.64
2023-04-21T17:51:15.687Z,16.63
2023-04-21T17:53:44.139Z,16.57
2023-04-21T17:56:14.425Z,16.55
2023-04-21T17:58:42.978Z,16.48
2023-04-21T18:01:11.408Z,16.42
2023-04-21T18:03:41.408Z,16.39
2023-04-21T18:06:11.374Z,16.40
2023-04-21T18:08:41.435Z,16.24
2023-04-21T18:11:11.554Z,16.09
2023-04-21T18:13:40.001Z,16.03
2023-04-21T18:16:08.730Z,15.91
2023-04-21T18:18:37.613Z,15.83
2023-04-21T18:21:06.318Z,15.76
2023-04-21T18:23:35.797Z,15.65
2023-04-21T18:26:05.890Z,15.57
2023-04-21T18:28:34.330Z,15.49
2023-04-21T18:31:02.788Z,15.42
2023-04-21T18:33:31.282Z,15.38
2023-04-21T18:35:59.651Z,15.36
2023-04-21T18:38:28.039Z,15.32
2023-04-21T18:40:57.097Z,15.30
2023-04-21T18:43:26.946Z,15.24
2023-04-21T18:45:55.524Z,15.27
2023-04-21T18:48:23.903Z,15.18
2023-04-21T18:50:52.304Z,15.22
2023-04-21T18:53:20.726Z,15.18
2023-04-21T18:55:49.170Z,15.09
2023-04-21T18:58:17.682Z,15.08
2023-04-21T19:00:47.507Z,15.06
2023-04-21T19:03:16.138Z,15.03
2023-04-21T19:05:44.653Z,14.98
2023-04-21T19:08:12.972Z,14.96
2023-04-21T19:10:41.500Z,14.94
2023-04-21T19:13:10.324Z,14.89
2023-04-21T19:15:39.060Z,14.82
2023-04-21T19:18:08.902Z,14.78
2023-04-21T19:20:37.907Z,14.73
2023-04-21T19:23:06.354Z,14.68
2023-04-21T19:25:35.238Z,14.65
2023-04-21T19:28:04.295Z,14.67
2023-04-21T19:30:32.868Z,14.59
2023-04-21T19:33:01.338Z,14.56
2023-04-21T19:35:31.560Z,14.54
2023-04-21T19:38:00.213Z,14.53
2023-04-21T19:40:29.239Z,14.52
2023-04-21T19:42:58.670Z,14.50
2023-04-21T19:45:27.968Z,14.58
2023-04-21T19:47:56.458Z,14.57
2023-04-21T19:50:24.985Z,14.55
2023-04-21T19:52:54.854Z,14.50
2023-04-21T19:55:23.378Z,14.53
2023-04-21T19:57:52.073Z,14.49
2023-04-21T20:00:20.791Z,14.50
2023-04-21T20:02:49.353Z,14.45
2023-04-21T20:05:17.937Z,14.45
2023-04-21T20:07:46.838Z,14.40
2023-04-21T20:10:16.736Z,14.40
2023-04-21T20:12:45.184Z,14.34
2023-04-21T20:15:13.777Z,14.37
2023-04-21T20:17:42.583Z,14.34
2023-04-21T20:20:13.104Z,14.27
2023-04-21T20:22:41.642Z,14.22
2023-04-21T20:25:10.965Z,14.13
2023-04-21T20:27:40.853Z,13.94
2023-04-21T20:30:10.320Z,13.82
2023-04-21T20:32:38.721Z,13.79
2023-04-21T20:35:08.249Z,13.61
2023-04-21T20:37:37.459Z,13.65
2023-04-21T20:40:08.385Z,13.75
2023-04-21T20:42:36.865Z,13.72
2023-04-21T20:45:09.437Z,13.68
2023-04-21T20:47:38.006Z,13.52
2023-04-21T20:50:08.262Z,13.44
2023-04-21T20:52:36.759Z,13.44
2023-04-21T20:55:05.498Z,13.49
2023-04-21T20:57:34.064Z,13.37
2023-04-21T21:00:04.830Z,13.49
2023-04-21T21:02:34.781Z,13.50
2023-04-21T21:05:04.261Z,13.47
2023-04-21T21:07:33.199Z,13.44
2023-04-21T21:10:01.727Z,13.35
2023-04-21T21:12:30.159Z,13.26
2023-04-21T21:14:58.522Z,13.21
2023-04-21T21:17:26.998Z,13.16
2023-04-21T21:19:57.125Z,13.11
2023-04-21T21:22:25.546Z,13.14
2023-04-21T21:24:53.874Z,13.10
2023-04-21T21:27:22.357Z,13.11
2023-04-21T21:29:50.851Z,13.17
2023-04-21T21:32:19.239Z,13.18
2023-04-21T21:34:48.232Z,13.22
2023-04-21T21:37:18.008Z,13.18
2023-04-21T21:39:46.372Z,13.22
2023-04-21T21:42:14.772Z,13.21
2023-04-21T21:44:43.267Z,13.21
2023-04-21T21:47:11.852Z,13.11
2023-04-21T21:49:40.799Z,13.00
2023-04-21T21:52:09.321Z,13.11
2023-04-21T21:54:39.329Z,13.15
2023-04-21T21:57:07.776Z,13.23
2023-04-21T21:59:36.505Z,13.21
2023-04-21T22:02:05.490Z,13.24
2023-04-21T22:04:33.936Z,13.22
2023-04-21T22:07:03.305Z,13.19
2023-04-21T22:09:31.730Z,13.16
2023-04-21T22:12:02.117Z,13.05
2023-04-21T22:14:30.897Z,13.14
2023-04-21T22:16:59.212Z,13.14
2023-04-21T22:19:27.764Z,13.15
2023-04-21T22:21:56.546Z,13.15
2023-04-21T22:24:25.069Z,13.13
2023-04-21T22:26:53.494Z,13.07
2023-04-21T22:29:23.262Z,13.03
2023-04-21T22:31:51.801Z,13.04
2023-04-21T22:34:20.303Z,13.02
2023-04-21T22:36:48.668Z,13.03
2023-04-21T22:39:17.449Z,12.96
2023-04-21T22:41:45.972Z,12.94
2023-04-21T22:44:14.599Z,12.94
2023-04-21T22:46:44.428Z,12.92
2023-04-21T22:49:13.020Z,12.89
2023-04-21T22:51:42.277Z,12.85
2023-04-21T22:54:10.732Z,12.84
2023-04-21T22:56:39.150Z,12.78
2023-04-21T22:59:08.311Z,12.79
2023-04-21T23:01:36.696Z,12.68
2023-04-21T23:04:06.555Z,12.71
2023-04-21T23:06:35.079Z,12.71
2023-04-21T23:09:04.171Z,12.63
2023-04-21T23:11:32.684Z,12.65
2023-04-21T23:14:01.054Z,12.62
2023-04-21T23:16:29.560Z,12.60
2023-04-21T23:18:57.902Z,12.61
2023-04-21T23:21:27.675Z,12.60
2023-04-21T23:23:56.056Z,12.56
2023-04-21T23:26:26.681Z,12.51
2023-04-21T23:28:55.055Z,12.52
2023-04-21T23:31:23.513Z,12.48
2023-04-21T23:33:52.073Z,12.47
2023-04-21T23:36:20.509Z,12.45
2023-04-21T23:38:50.275Z,12.37
2023-04-21T23:41:18.690Z,12.41
2023-04-21T23:43:47.097Z,12.40
2023-04-21T23:46:16.582Z,12.40
2023-04-21T23:48:45.317Z,12.32
2023-04-21T23:51:14.007Z,12.29
2023-04-21T23:53:42.505Z,12.33
2023-04-21T23:56:12.297Z,12.24
2023-04-21T23:58:40.797Z,12.23
